createdAt,value
2023-01-15T00:03:44.361Z,3592
2023-01-15T00:13:44.303Z,3584
2023-01-15T00:23:44.246Z,3589
2023-01-15T00:33:48.268Z,3589
2023-01-15T00:43:44.256Z,3589
2023-01-15T00:53:44.232Z,3584
2023-01-15T01:03:44.260Z,3589
2023-01-15T01:13:44.203Z,3581
2023-01-15T01:23:44.193Z,3587
2023-01-15T01:33:44.233Z,3589
2023-01-15T01:43:44.220Z,3589
2023-01-15T01:53:44.183Z,3592
2023-01-15T02:03:44.208Z,3594
2023-01-15T02:13:44.178Z,3594
2023-01-15T02:23:44.167Z,3594
2023-01-15T02:33:44.171Z,3594
2023-01-15T02:43:44.140Z,3594
2023-01-15T02:53:44.109Z,3594
2023-01-15T03:03:44.569Z,3589
2023-01-15T03:13:44.141Z,3589
2023-01-15T03:23:44.100Z,3589
2023-01-15T03:33:44.531Z,3584
2023-01-15T03:43:44.103Z,3589
2023-01-15T03:53:44.123Z,3581
2023-01-15T04:03:44.058Z,3587
2023-01-15T04:13:44.105Z,3587
2023-01-15T04:23:44.040Z,3589
2023-01-15T04:33:44.085Z,3589
2023-01-15T04:43:44.061Z,3592
2023-01-15T04:53:44.015Z,3587
2023-01-15T05:03:44.050Z,3589
2023-01-15T05:13:44.023Z,3592
2023-01-15T05:23:43.994Z,3592
2023-01-15T05:33:44.035Z,3594
2023-01-15T05:43:44.010Z,3594
2023-01-15T05:53:43.969Z,3589
2023-01-15T06:03:45.976Z,3571
2023-01-15T06:13:43.989Z,3579
2023-01-15T06:33:44.013Z,3584
2023-01-15T06:43:43.986Z,3589
2023-01-15T06:53:43.956Z,3589
2023-01-15T07:03:44.034Z,3592
2023-01-15T07:13:43.927Z,3589
2023-01-15T07:23:43.929Z,3592
2023-01-15T07:33:43.943Z,3584
2023-01-15T07:43:43.900Z,3589
2023-01-15T07:53:43.925Z,3589
2023-01-15T08:03:43.969Z,3589
2023-01-15T08:13:43.922Z,3592
2023-01-15T08:23:43.878Z,3594
2023-01-15T08:33:43.919Z,3587
2023-01-15T08:43:43.907Z,3589
2023-01-15T08:53:43.840Z,3589
2023-01-15T09:03:43.883Z,3592
2023-01-15T09:13:44.536Z,3594
2023-01-15T09:23:43.830Z,3592
2023-01-15T09:33:43.879Z,3592
2023-01-15T09:43:50.367Z,3594
2023-01-15T09:53:43.795Z,3592
2023-01-15T10:03:44.255Z,3587
2023-01-15T10:13:43.806Z,3589
2023-01-15T10:23:43.764Z,3589
2023-01-15T10:33:43.795Z,3594
2023-01-15T10:43:44.193Z,3589
2023-01-15T10:53:43.731Z,3589
2023-01-15T11:03:43.753Z,3592
2023-01-15T11:13:43.743Z,3592
2023-01-15T11:23:43.699Z,3594
2023-01-15T11:33:43.720Z,3594
2023-01-15T11:43:43.709Z,3594
2023-01-15T11:53:43.681Z,3594
2023-01-15T12:03:43.865Z,3594
2023-01-15T12:13:43.696Z,3594
2023-01-15T12:23:43.635Z,3594
2023-01-15T12:33:43.663Z,3594
2023-01-15T12:43:43.639Z,3594
2023-01-15T12:53:43.620Z,3594
2023-01-15T13:03:43.647Z,3594
2023-01-15T13:13:43.635Z,3589
2023-01-15T13:23:43.580Z,3592
2023-01-15T13:33:43.620Z,3589
2023-01-15T13:43:44.027Z,3584
2023-01-15T13:53:43.572Z,3584
2023-01-15T14:03:43.611Z,3589
2023-01-15T14:13:43.596Z,3589
2023-01-15T14:23:43.536Z,3589
2023-01-15T14:33:43.569Z,3589
2023-01-15T14:43:43.561Z,3589
2023-01-15T14:53:43.531Z,3592
2023-01-15T15:03:43.563Z,3592
2023-01-15T15:13:43.513Z,3592
2023-01-15T15:23:43.541Z,3592
2023-01-15T15:33:43.547Z,3594
2023-01-15T15:43:43.510Z,3584
2023-01-15T15:53:43.486Z,3587
2023-01-15T16:13:43.483Z,3589
2023-01-15T16:23:43.888Z,3584
2023-01-15T16:33:43.491Z,3584
2023-01-15T16:43:43.454Z,3587
2023-01-15T16:53:43.438Z,3587
2023-01-15T17:03:43.476Z,3579
2023-01-15T17:13:43.442Z,3584
2023-01-15T17:23:43.430Z,3584
2023-01-15T17:33:43.421Z,3587
2023-01-15T17:43:43.426Z,3589
2023-01-15T17:53:43.403Z,3589
2023-01-15T18:03:43.433Z,3589
2023-01-15T18:13:43.443Z,3589
2023-01-15T18:23:43.381Z,3589
2023-01-15T18:33:43.398Z,3589
2023-01-15T18:43:43.406Z,3589
2023-01-15T18:53:43.352Z,3589
2023-01-15T19:03:43.375Z,3589
2023-01-15T19:13:43.385Z,3589
2023-01-15T19:23:43.344Z,3589
2023-01-15T19:33:43.810Z,3584
2023-01-15T19:43:45.277Z,3563
2023-01-15T19:53:43.347Z,3571
2023-01-15T20:03:43.364Z,3574
2023-01-15T20:13:43.356Z,3576
2023-01-15T20:23:43.314Z,3579
2023-01-15T20:33:43.334Z,3581
2023-01-15T20:43:43.760Z,3579
2023-01-15T20:53:43.299Z,3579
2023-01-15T21:03:43.316Z,3579
2023-01-15T21:13:43.317Z,3581
2023-01-15T21:23:43.301Z,3584
2023-01-15T21:33:43.316Z,3584
2023-01-15T21:43:43.311Z,3584
2023-01-15T21:53:43.265Z,3587
2023-01-15T22:03:43.297Z,3587
2023-01-15T22:13:43.284Z,3584
2023-01-15T22:23:43.270Z,3579
2023-01-15T22:33:43.720Z,3574
2023-01-15T22:43:45.216Z,3561
2023-01-15T22:53:43.658Z,3558
2023-01-15T23:03:43.283Z,3566
2023-01-15T23:13:43.283Z,3569
2023-01-15T23:23:43.246Z,3571
2023-01-15T23:33:43.262Z,3574
2023-01-15T23:43:43.267Z,3576
2023-01-15T23:53:43.227Z,3579
